Time;durP1;ratioP1;P1;durP2;ratioP2;P2;SDS_P1;SDS_P2;PMS_P1;PMS_P2;Temp;Humidity;BMP_temperature;BMP_pressure;BME280_temperature;BME280_humidity;BME280_pressure;Samples;Min_cycle;Max_cycle;Signal;HPM_P1;HPM_P2
2021/03/19 06:01:45;;;;;;;16.70;9.80;;;0.50;99.90;;;-143.32;100.00;53630.66;6192502;23;20465;-93
2021/03/19 06:04:21;;;;;;;14.57;8.93;;;0.50;99.90;;;-143.32;100.00;53640.75;6186044;23;20414;-89
2021/03/19 06:07:03;;;;;;;25.17;11.53;;;0.40;99.90;;;-143.32;100.00;53606.41;6188450;23;20473;-89
2021/03/19 06:09:37;;;;;;;14.13;9.80;;;0.50;99.90;;;-143.32;100.00;53644.78;6187992;23;20413;-90
2021/03/19 06:12:18;;;;;;;14.33;10.40;;;0.50;99.90;;;-143.32;100.00;53671.06;6187307;23;20953;-92
2021/03/19 06:14:50;;;;;;;15.77;10.87;;;0.50;99.90;;;-143.32;100.00;53656.91;6187117;23;20409;-92
2021/03/19 06:17:31;;;;;;;21.23;10.60;;;0.50;99.90;;;-143.32;100.00;53638.72;6187804;23;20402;-92
2021/03/19 06:20:14;;;;;;;18.83;9.70;;;0.70;99.90;;;-143.32;100.00;53622.56;6187386;23;20391;-90
2021/03/19 06:22:47;;;;;;;14.87;9.93;;;0.70;99.90;;;-143.32;100.00;53626.63;6189926;23;20713;-91
2021/03/19 06:25:29;;;;;;;13.00;9.40;;;0.70;99.90;;;-143.32;100.00;53604.41;6187823;23;20401;-92
2021/03/19 06:28:02;;;;;;;19.73;10.23;;;0.80;99.90;;;-143.32;100.00;53616.50;6188177;23;20371;-90
2021/03/19 06:30:42;;;;;;;17.13;10.03;;;0.90;99.90;;;-143.32;100.00;53590.25;6191281;23;20410;-92
2021/03/19 06:40:35;;;;;;;13.37;9.70;;;1.30;99.90;;;-143.32;100.00;53572.09;6048855;23;20432;-93
2021/03/19 11:02:40;;;;;;;7.33;2.50;;;6.10;99.90;;;-143.32;61.36;53721.56;6164314;23;20453;-92
2021/03/19 11:05:22;;;;;;;4.73;2.17;;;6.20;99.90;;;-143.32;63.86;53786.19;6191962;23;20422;-92
2021/03/19 11:07:49;;;;;;;2.50;1.90;;;6.10;99.90;;;-143.32;63.97;53739.72;6192258;23;20440;-92
2021/03/19 11:10:29;;;;;;;3.83;2.33;;;6.30;99.90;;;-143.32;62.15;53778.09;6195561;23;20481;-93
2021/03/19 11:13:40;;;;;;;1.90;1.77;;;6.30;99.90;;;-143.32;59.36;53786.19;6198489;23;20437;-91
2021/03/19 11:22:55;;;;;;;2.03;1.93;;;6.60;99.90;;;-143.32;56.89;53790.22;6191192;23;20414;-93
2021/03/19 11:25:45;;;;;;;3.90;2.20;;;6.70;99.90;;;-143.32;58.19;53820.53;6198055;23;20418;-94
2021/03/19 11:28:32;;;;;;;2.47;1.90;;;6.60;99.90;;;-143.32;58.43;53772.03;6193365;23;20410;-91
2021/03/19 11:34:46;;;;;;;3.50;2.43;;;6.80;99.90;;;-143.32;56.97;53869.00;6191727;23;20417;-92
2021/03/19 11:37:31;;;;;;;3.03;2.27;;;6.60;99.90;;;-143.32;55.42;53838.72;6187179;23;20865;-94
2021/03/19 11:40:08;;;;;;;2.63;1.60;;;6.70;99.90;;;-143.32;53.61;53852.84;6193591;23;20458;-93
2021/03/19 11:42:59;;;;;;;6.53;2.10;;;6.80;99.90;;;-143.32;50.21;53901.31;6195800;23;20727;-94
2021/03/19 11:45:37;;;;;;;2.10;1.90;;;6.80;99.90;;;-143.32;49.33;53937.69;6199980;23;20390;-91
2021/03/19 11:50:47;;;;;;;1.63;1.33;;;6.80;99.90;;;-143.32;47.48;53929.59;6182058;23;20452;-91
2021/03/19 13:29:32;;;;;;;1.40;1.30;;;7.60;99.90;;;-143.32;41.61;54107.38;6189593;23;20957;-94
2021/03/19 13:56:28;;;;;;;3.30;1.60;;;7.80;99.90;;;-143.32;42.25;54095.25;6186512;23;20370;-89
2021/03/19 13:59:03;;;;;;;1.57;1.47;;;7.90;99.90;;;-143.32;42.67;54081.13;6185830;23;20402;-90
2021/03/19 14:04:20;;;;;;;2.00;1.70;;;8.00;99.90;;;-143.32;42.17;54075.06;6188490;22;20470;-92
2021/03/19 14:13:57;;;;;;;1.73;1.37;;;8.00;99.90;;;-143.32;40.80;54111.41;6207490;23;20457;-93
2021/03/19 14:16:43;;;;;;;5.60;1.53;;;8.10;99.90;;;-143.32;42.98;54083.13;6206000;23;20397;-93
2021/03/19 14:19:13;;;;;;;1.77;1.67;;;8.20;99.90;;;-143.32;41.98;54121.50;6197349;23;20405;-90
2021/03/19 14:21:55;;;;;;;3.83;2.37;;;8.20;99.90;;;-143.32;41.89;54125.56;6186566;23;20441;-90
2021/03/19 14:24:22;;;;;;;2.77;1.83;;;8.10;99.90;;;-143.32;42.69;54111.41;6187467;23;20469;-90
2021/03/19 14:26:49;;;;;;;4.53;2.40;;;8.10;99.90;;;-143.32;42.30;54111.41;6186723;23;20441;-92
2021/03/19 14:29:21;;;;;;;2.73;1.83;;;8.20;99.90;;;-143.32;41.70;54103.34;6187630;23;20679;-91
2021/03/19 14:31:48;;;;;;;2.03;1.90;;;8.30;99.90;;;-143.32;42.05;54121.50;6186583;23;20390;-91
2021/03/19 14:34:16;;;;;;;1.93;1.73;;;8.20;99.90;;;-143.32;41.79;54119.50;6186547;23;20528;-90
2021/03/19 14:36:49;;;;;;;1.60;1.43;;;8.20;99.90;;;-143.32;41.64;54147.78;6186408;23;20414;-92
2021/03/19 14:39:37;;;;;;;1.30;1.20;;;8.20;99.90;;;-143.32;41.15;54151.81;6195648;23;20401;-92
2021/03/19 15:13:46;;;;;;;3.80;1.90;;;7.80;99.90;;;-143.32;49.32;54145.75;6189433;23;20453;-91
2021/03/19 15:20:49;;;;;;;1.93;1.83;;;7.70;99.90;;;-143.32;55.36;54097.28;6178311;23;20410;-92
2021/03/19 15:23:20;;;;;;;5.20;1.70;;;7.50;99.90;;;-143.32;57.51;54066.97;6164892;23;20395;-90
2021/03/19 15:25:48;;;;;;;2.40;1.90;;;7.20;99.90;;;-143.32;58.09;54119.50;6179885;23;20410;-90
2021/03/19 15:31:22;;;;;;;2.10;1.90;;;7.00;99.90;;;-143.32;59.59;54111.41;6181971;23;20907;-91
2021/03/19 15:36:28;;;;;;;2.60;1.70;;;6.90;99.90;;;-143.32;59.36;54105.34;6174645;23;20456;-87
2021/03/19 15:39:12;;;;;;;2.30;1.80;;;7.00;99.90;;;-143.32;59.29;54075.06;6188976;23;20428;-91
2021/03/19 15:41:42;;;;;;;4.20;1.90;;;7.00;99.90;;;-143.32;58.47;54109.41;6188568;23;20418;-91
2021/03/19 15:44:09;;;;;;;6.40;2.00;;;7.00;99.90;;;-143.32;58.91;54081.13;6191028;23;20397;-92
2021/03/19 15:46:36;;;;;;;3.30;2.00;;;7.00;99.90;;;-143.32;59.43;54091.22;6191939;23;20417;-93
2021/03/19 15:49:03;;;;;;;1.83;1.67;;;7.00;99.90;;;-143.32;57.43;54091.22;6192349;23;20481;-93
2021/03/19 15:51:30;;;;;;;8.20;1.90;;;7.10;99.90;;;-143.32;57.32;54121.50;6191694;23;20433;-93
2021/03/19 15:53:56;;;;;;;3.70;1.80;;;7.10;99.90;;;-143.32;58.50;54109.41;6187714;23;20503;-94
2021/03/19 15:56:24;;;;;;;3.57;1.70;;;7.00;99.90;;;-143.32;58.13;54125.56;6187082;23;20414;-94
2021/03/19 15:58:51;;;;;;;1.70;1.50;;;7.00;99.90;;;-143.32;58.59;54093.22;6187446;23;20413;-91
2021/03/19 16:01:19;;;;;;;4.43;1.90;;;7.00;99.90;;;-143.32;59.56;54087.19;6186485;23;20464;-91
2021/03/19 16:03:45;;;;;;;4.03;1.67;;;6.90;99.90;;;-143.32;59.47;54060.91;6188076;23;20422;-91
2021/03/19 16:09:53;;;;;;;10.47;1.83;;;7.00;99.90;;;-143.32;60.32;54073.03;6188221;23;20368;-90
2021/03/19 16:12:22;;;;;;;4.50;1.70;;;7.00;99.90;;;-143.32;60.70;54089.19;6189440;23;20937;-91
2021/03/19 16:14:49;;;;;;;3.63;1.67;;;6.90;99.90;;;-143.32;59.94;54058.91;6189235;23;20426;-91
2021/03/19 16:17:18;;;;;;;5.10;3.07;;;6.90;99.90;;;-143.32;60.43;54099.28;6188874;23;20398;-94
2021/03/19 16:19:50;;;;;;;2.17;1.97;;;7.00;99.90;;;-143.32;60.60;54069.00;6189858;23;20409;-92
2021/03/19 16:25:58;;;;;;;5.07;1.80;;;6.90;99.90;;;-143.32;61.14;54054.84;6188519;23;20365;-92
2021/03/19 16:28:27;;;;;;;4.67;1.70;;;6.90;99.90;;;-143.32;61.62;54091.22;6187918;23;20406;-89
2021/03/19 16:30:57;;;;;;;1.70;1.60;;;7.00;99.90;;;-143.32;60.80;54081.13;6187116;23;20410;-87
2021/03/19 16:33:24;;;;;;;1.57;1.47;;;6.90;99.90;;;-143.32;59.73;54060.91;6187899;23;20456;-89
2021/03/19 16:35:54;;;;;;;2.90;2.60;;;7.00;99.90;;;-143.32;60.34;54069.00;6187752;23;20413;-88
2021/03/19 16:38:25;;;;;;;2.90;1.60;;;6.90;99.90;;;-143.32;59.61;54075.06;6186560;23;20410;-88
2021/03/19 16:41:32;;;;;;;2.60;1.70;;;7.10;99.90;;;-143.32;59.51;54044.75;6187014;23;20709;-89
2021/03/19 16:44:00;;;;;;;3.33;1.63;;;7.10;99.90;;;-143.32;59.46;54060.91;6187596;23;20390;-88
2021/03/19 16:46:28;;;;;;;6.80;2.00;;;7.20;99.90;;;-143.32;59.38;54054.84;6187930;23;20837;-93
2021/03/19 16:48:56;;;;;;;2.30;2.10;;;7.20;99.90;;;-143.32;60.07;54042.72;6188748;23;20445;-91
2021/03/19 16:51:33;;;;;;;2.10;2.00;;;7.20;99.90;;;-143.32;59.56;54048.78;6188668;23;20795;-91
2021/03/19 16:54:01;;;;;;;1.87;1.77;;;7.20;99.90;;;-143.32;60.60;54040.72;6188335;23;20418;-92
2021/03/19 17:00:12;;;;;;;1.93;1.80;;;7.20;99.90;;;-143.32;63.45;54075.06;6188817;23;20785;-92
2021/03/19 17:02:39;;;;;;;2.33;2.00;;;7.10;99.90;;;-143.32;66.19;54024.56;6187814;23;20398;-92
2021/03/19 17:08:47;;;;;;;3.30;1.97;;;6.80;99.90;;;-143.32;69.14;54022.53;6187594;23;20413;-91
2021/03/19 17:14:55;;;;;;;2.30;2.10;;;6.60;99.90;;;-143.32;73.04;53970.00;6186864;23;20377;-91
2021/03/19 17:17:22;;;;;;;4.33;2.30;;;6.50;99.90;;;-143.32;73.86;53996.28;6187083;23;20440;-91
2021/03/19 17:19:55;;;;;;;5.70;3.00;;;6.40;99.90;;;-143.32;75.22;53994.25;6187053;23;20402;-90
2021/03/19 17:22:24;;;;;;;5.80;2.60;;;6.40;99.90;;;-143.32;75.30;54020.50;6186439;23;20414;-88
2021/03/19 17:25:39;;;;;;;4.70;3.23;;;6.30;99.90;;;-143.32;76.34;54018.50;6185693;23;20512;-91
2021/03/19 17:28:28;;;;;;;5.80;2.83;;;6.20;99.90;;;-143.32;76.20;53986.16;6186593;23;20390;-88
2021/03/19 17:31:27;;;;;;;2.30;2.10;;;6.20;99.90;;;-143.32;76.84;53949.81;6186105;23;20406;-90
2021/03/19 17:34:09;;;;;;;;;;;;;;;;;;;;;
2021/03/19 17:36:40;;;;;;;2.30;2.10;;;6.00;99.90;;;-143.32;78.51;53992.22;6185137;23;20510;-89
2021/03/19 17:39:17;;;;;;;6.63;2.80;;;6.00;99.90;;;-143.32;78.44;53994.25;6186134;23;20393;-90
2021/03/19 17:41:44;;;;;;;3.20;2.10;;;6.00;99.90;;;-143.32;78.52;53996.28;6186191;23;20389;-90
2021/03/19 17:44:11;;;;;;;6.80;3.53;;;6.00;99.90;;;-143.32;79.57;54038.69;6187010;23;20406;-90
2021/03/19 17:47:06;;;;;;;9.20;2.80;;;5.90;99.90;;;-143.32;79.87;54024.56;6186158;23;20417;-89
2021/03/19 17:49:37;;;;;;;4.63;2.63;;;5.90;99.90;;;-143.32;80.16;53996.28;6180619;23;20436;-91
2021/03/19 17:52:04;;;;;;;6.03;2.70;;;5.90;99.90;;;-143.32;80.33;54008.38;6186325;23;20781;-90
2021/03/19 17:54:35;;;;;;;3.57;2.60;;;5.80;99.90;;;-143.32;81.05;54004.34;6185546;23;20453;-89
2021/03/19 17:57:02;;;;;;;8.53;2.57;;;5.80;99.90;;;-143.32;81.31;54016.47;6186490;23;20395;-90
2021/03/19 17:59:32;;;;;;;3.83;2.87;;;5.70;99.90;;;-143.32;81.86;54014.44;6186026;23;20500;-90
2021/03/19 18:01:58;;;;;;;5.77;2.50;;;5.60;99.90;;;-143.32;82.22;54020.50;6186506;23;20410;-87
2021/03/19 18:04:38;;;;;;;9.33;2.50;;;5.60;99.90;;;-143.32;82.11;54034.66;6187940;23;20703;-88
2021/03/19 18:07:07;;;;;;;4.23;2.70;;;5.60;99.90;;;-143.32;82.49;54000.31;6185137;23;20460;-90
2021/03/19 18:09:58;;;;;;;6.40;2.73;;;5.60;99.90;;;-143.32;82.36;53978.09;6186272;23;20410;-89
2021/03/19 18:12:39;;;;;;;4.20;3.10;;;5.70;99.90;;;-143.32;83.01;53976.06;6186649;23;20418;-89
2021/03/19 18:15:14;;;;;;;5.33;2.90;;;5.60;99.90;;;-143.32;83.42;53970.00;6186617;23;20398;-89
2021/03/19 18:17:41;;;;;;;5.63;2.53;;;5.60;99.90;;;-143.32;83.50;54002.34;6186365;23;20667;-90
2021/03/19 18:20:13;;;;;;;10.70;3.10;;;5.70;99.90;;;-143.32;83.94;53988.19;6185783;23;20413;-89
2021/03/19 18:22:40;;;;;;;5.50;3.80;;;5.70;99.90;;;-143.32;84.36;53965.97;6186461;23;20948;-89
2021/03/19 18:25:13;;;;;;;5.40;3.70;;;5.60;99.90;;;-143.32;84.74;53974.06;6186403;23;20402;-90
2021/03/19 18:27:41;;;;;;;10.17;4.30;;;5.50;99.90;;;-143.32;85.07;53992.22;6186542;23;20390;-90
2021/03/19 18:30:12;;;;;;;5.20;3.60;;;5.50;99.90;;;-143.32;85.40;53972.03;6185838;23;20414;-89
2021/03/19 18:32:39;;;;;;;4.37;3.80;;;5.50;99.90;;;-143.32;84.73;54012.44;6185968;23;20394;-91
2021/03/19 18:35:08;;;;;;;9.03;3.60;;;5.40;99.90;;;-143.32;84.69;53978.09;6185910;23;20430;-89
2021/03/19 18:37:38;;;;;;;6.67;3.60;;;5.40;99.90;;;-143.32;83.98;54020.50;6186109;23;20437;-89
2021/03/19 18:40:11;;;;;;;10.90;4.37;;;5.50;99.90;;;-143.32;84.00;53965.97;6186166;23;20737;-89
2021/03/19 18:42:38;;;;;;;10.60;3.50;;;5.50;99.90;;;-143.32;83.82;53990.22;6185867;23;20422;-90
2021/03/19 18:45:07;;;;;;;4.03;3.30;;;5.40;99.90;;;-143.32;84.01;54010.41;6186115;23;20428;-89
2021/03/19 18:47:35;;;;;;;7.67;3.97;;;5.40;99.90;;;-143.32;83.87;54020.50;6186725;23;20405;-89
2021/03/19 18:50:02;;;;;;;4.23;3.53;;;5.40;99.90;;;-143.32;83.80;53990.22;6187909;23;20774;-89
2021/03/19 18:52:30;;;;;;;5.03;3.57;;;5.40;99.90;;;-143.32;84.16;54016.47;6187837;23;20895;-89
2021/03/19 18:54:58;;;;;;;4.50;3.90;;;5.30;99.90;;;-143.32;84.88;54046.78;6187576;23;20810;-89
2021/03/19 18:57:25;;;;;;;13.40;3.60;;;5.20;99.90;;;-143.32;84.47;54026.56;6187804;23;20414;-89
2021/03/19 18:59:52;;;;;;;5.87;3.60;;;5.20;99.90;;;-143.32;84.11;54034.66;6188254;23;20406;-90
2021/03/19 19:02:19;;;;;;;5.10;3.70;;;5.20;99.90;;;-143.32;84.79;54060.91;6188252;23;20406;-90
2021/03/19 19:04:46;;;;;;;9.93;4.43;;;5.10;99.90;;;-143.32;85.54;54012.44;6188227;23;20417;-90
2021/03/19 19:07:13;;;;;;;5.43;3.60;;;5.00;99.90;;;-143.32;85.88;54022.53;6186667;23;20484;-91
2021/03/19 19:09:40;;;;;;;10.20;3.83;;;4.90;99.90;;;-143.32;86.55;54071.00;6188249;23;20406;-90
2021/03/19 19:12:08;;;;;;;4.97;3.60;;;4.80;99.90;;;-143.32;87.43;54042.72;6187982;23;20414;-90
2021/03/19 19:14:35;;;;;;;5.93;3.50;;;4.70;99.90;;;-143.32;87.21;54056.88;6187739;23;21031;-89
2021/03/19 19:17:03;;;;;;;5.90;3.60;;;4.70;99.90;;;-143.32;87.09;54044.75;6187912;23;20410;-90
2021/03/19 19:19:31;;;;;;;6.57;4.20;;;4.60;99.90;;;-143.32;87.15;54048.78;6187632;23;20444;-89
2021/03/19 19:22:00;;;;;;;11.50;3.80;;;4.60;99.90;;;-143.32;87.64;54066.97;6187455;23;20467;-89
2021/03/19 19:24:28;;;;;;;7.73;4.60;;;4.60;99.90;;;-143.32;88.22;54040.72;6187757;23;20484;-90
2021/03/19 19:26:54;;;;;;;9.33;5.90;;;4.50;99.90;;;-143.32;88.76;54075.06;6187497;23;20409;-90
2021/03/19 19:29:23;;;;;;;10.80;5.60;;;4.60;99.90;;;-143.32;88.64;54040.72;6187542;23;20417;-90
2021/03/19 19:31:50;;;;;;;7.30;5.30;;;4.50;99.90;;;-143.32;88.93;54089.19;6187513;23;20410;-90
2021/03/19 19:34:17;;;;;;;8.30;4.87;;;4.50;99.90;;;-143.32;87.95;54038.69;6187786;23;20512;-91
2021/03/19 19:36:44;;;;;;;8.47;5.00;;;4.60;99.90;;;-143.32;87.55;54016.47;6187962;23;20437;-90
2021/03/19 19:39:11;;;;;;;8.00;4.40;;;4.70;99.90;;;-143.32;87.77;54036.66;6187900;23;20405;-89
2021/03/19 19:41:37;;;;;;;7.93;4.60;;;4.80;99.90;;;-143.32;87.20;53992.22;6187983;23;20414;-90
2021/03/19 19:44:05;;;;;;;6.90;4.60;;;4.90;99.90;;;-143.32;86.30;54060.91;6187436;23;20433;-90
2021/03/19 19:46:33;;;;;;;9.17;4.70;;;4.90;99.90;;;-143.32;86.04;54040.72;6187748;23;20410;-90
2021/03/19 19:49:04;;;;;;;8.40;4.93;;;5.00;99.90;;;-143.32;85.85;54014.44;6187396;23;20718;-86
2021/03/19 19:51:38;;;;;;;7.70;4.30;;;5.00;99.90;;;-143.32;85.82;54079.09;6187315;23;20394;-87
2021/03/19 19:54:06;;;;;;;6.83;4.20;;;5.00;99.90;;;-143.32;85.73;54052.84;6187224;23;20488;-86
2021/03/19 19:56:34;;;;;;;5.80;4.70;;;5.00;99.90;;;-143.32;86.14;54000.31;6187279;23;20414;-86
2021/03/19 19:59:01;;;;;;;6.53;3.90;;;5.00;99.90;;;-143.32;86.04;54044.75;6186867;23;20714;-87
2021/03/19 20:01:30;;;;;;;6.97;3.83;;;5.00;99.90;;;-143.32;85.91;54016.47;6187961;23;20406;-87
2021/03/19 20:04:00;;;;;;;12.57;4.63;;;5.00;99.90;;;-143.32;86.01;54044.75;6187599;23;20787;-87
2021/03/19 20:06:28;;;;;;;8.33;4.70;;;5.00;99.90;;;-143.32;85.76;54034.66;6187574;23;20398;-88
2021/03/19 20:08:55;;;;;;;5.83;3.83;;;5.10;99.90;;;-143.32;84.94;54052.84;6187183;23;20940;-88
2021/03/19 20:11:25;;;;;;;6.30;3.37;;;5.20;99.90;;;-143.32;83.89;54066.97;6187514;23;20410;-87
2021/03/19 20:13:54;;;;;;;7.10;3.30;;;5.20;99.90;;;-143.32;84.59;54048.78;6187410;23;20553;-88
2021/03/19 20:16:22;;;;;;;5.67;3.90;;;5.20;99.90;;;-143.32;84.85;54066.97;6187445;23;20406;-88
2021/03/19 20:18:53;;;;;;;3.30;3.00;;;5.00;99.90;;;-143.32;83.95;54062.94;6187065;23;20410;-87
2021/03/19 20:21:25;;;;;;;3.70;3.20;;;5.00;99.90;;;-143.32;83.38;54062.94;6187323;23;20745;-88
2021/03/19 20:23:52;;;;;;;5.37;3.40;;;5.00;99.90;;;-143.32;83.65;54044.75;6187581;23;20390;-87
2021/03/19 20:26:20;;;;;;;5.43;3.50;;;5.00;99.90;;;-143.32;83.52;54117.47;6187350;23;20406;-86
2021/03/19 20:28:49;;;;;;;5.53;3.60;;;4.90;99.90;;;-143.32;83.60;54066.97;6187087;23;20399;-87
2021/03/19 20:31:20;;;;;;;6.30;3.40;;;4.90;99.90;;;-143.32;84.18;54079.09;6186915;23;20959;-86
2021/03/19 20:33:47;;;;;;;5.70;4.00;;;4.70;99.90;;;-143.32;84.62;54069.00;6186956;23;20496;-87
2021/03/19 20:36:17;;;;;;;7.77;4.40;;;4.60;99.90;;;-143.32;84.70;54073.03;6186895;23;20954;-87
2021/03/19 20:38:46;;;;;;;6.17;4.20;;;4.60;99.90;;;-143.32;85.72;54069.00;6187259;23;20394;-87
2021/03/19 20:41:16;;;;;;;12.00;5.27;;;4.50;99.90;;;-143.32;86.18;54071.00;6186632;23;20888;-88
2021/03/19 20:43:44;;;;;;;6.80;4.33;;;4.50;99.90;;;-143.32;86.60;54099.28;6186979;23;20409;-88
2021/03/19 20:46:11;;;;;;;7.40;4.87;;;4.40;99.90;;;-143.32;87.54;54083.13;6186568;23;20436;-87
2021/03/19 20:48:41;;;;;;;8.30;5.40;;;4.30;99.90;;;-143.32;88.05;54073.03;6186492;23;20470;-89
2021/03/19 20:51:13;;;;;;;8.63;4.73;;;4.10;99.90;;;-143.32;88.60;54127.56;6187083;23;20471;-87
2021/03/19 20:53:41;;;;;;;8.20;5.63;;;4.20;99.90;;;-143.32;89.15;54093.22;6187041;23;20430;-87
2021/03/19 20:56:13;;;;;;;7.40;5.03;;;4.10;99.90;;;-143.32;89.53;54099.28;6187072;23;20402;-86
2021/03/19 20:58:41;;;;;;;9.73;5.73;;;4.20;99.90;;;-143.32;89.53;54121.50;6186597;23;20394;-87
2021/03/19 21:01:10;;;;;;;7.57;5.53;;;4.00;99.90;;;-143.32;89.49;54083.13;6186911;23;20476;-86
2021/03/19 21:03:43;;;;;;;8.03;5.00;;;4.00;99.90;;;-143.32;90.00;54075.06;6186638;23;20410;-87
2021/03/19 21:06:28;;;;;;;10.83;5.83;;;4.00;99.90;;;-143.32;90.42;54081.13;6185260;23;20414;-89
2021/03/19 21:08:55;;;;;;;6.57;5.00;;;3.90;99.90;;;-143.32;90.43;54095.25;6187195;23;20425;-87
2021/03/19 21:11:25;;;;;;;8.17;5.67;;;3.90;99.90;;;-143.32;90.86;54107.38;6186537;23;20417;-87
2021/03/19 21:13:53;;;;;;;7.83;5.40;;;3.90;99.90;;;-143.32;91.19;54109.41;6186805;23;20581;-87
2021/03/19 21:16:20;;;;;;;7.83;5.50;;;3.90;99.90;;;-143.32;90.66;54066.97;6186964;23;20423;-87
2021/03/19 21:18:47;;;;;;;15.43;6.83;;;3.90;99.90;;;-143.32;90.92;54107.38;6186537;23;20464;-88
2021/03/19 21:21:15;;;;;;;9.17;6.70;;;3.90;99.90;;;-143.32;91.00;54123.53;6186785;23;20418;-89
2021/03/19 21:23:42;;;;;;;8.00;5.80;;;3.90;99.90;;;-143.32;90.92;54107.38;6186849;23;20402;-89
2021/03/19 21:26:10;;;;;;;7.03;5.73;;;4.00;99.90;;;-143.32;91.14;54109.41;6186486;23;20414;-86
2021/03/19 21:28:39;;;;;;;8.27;6.10;;;3.90;99.90;;;-143.32;91.05;54097.28;6186874;23;20406;-87
2021/03/19 21:31:06;;;;;;;13.73;7.53;;;4.00;99.90;;;-143.32;90.99;54083.13;6186907;23;20402;-88
2021/03/19 21:33:34;;;;;;;15.23;6.80;;;4.00;99.90;;;-143.32;90.94;54093.22;6186736;23;20477;-89
2021/03/19 21:36:00;;;;;;;11.17;6.30;;;4.10;99.90;;;-143.32;90.51;54062.94;6186431;23;20406;-87
2021/03/19 21:38:28;;;;;;;8.23;6.00;;;4.00;99.90;;;-143.32;90.89;54062.94;6186445;23;20410;-88
2021/03/19 21:40:54;;;;;;;13.30;6.80;;;4.10;99.90;;;-143.32;90.63;54073.03;6186263;23;20398;-87
2021/03/19 21:43:23;;;;;;;6.67;5.73;;;4.10;99.90;;;-143.32;90.21;54089.19;6186137;23;20416;-88
2021/03/19 21:45:51;;;;;;;10.67;6.43;;;4.10;99.90;;;-143.32;90.53;54087.19;6186299;23;20382;-87
2021/03/19 21:48:20;;;;;;;9.43;5.93;;;4.10;99.90;;;-143.32;90.38;54097.28;6186768;23;20417;-88
2021/03/19 21:50:49;;;;;;;10.70;6.77;;;4.00;99.90;;;-143.32;90.82;54073.03;6186149;23;20410;-88
2021/03/19 21:53:17;;;;;;;9.97;6.20;;;4.00;99.90;;;-143.32;90.30;54113.44;6186052;23;21050;-88
2021/03/19 21:55:44;;;;;;;6.90;5.87;;;4.00;99.90;;;-143.32;90.53;54107.38;6186584;23;20410;-87
2021/03/19 21:58:17;;;;;;;7.20;6.07;;;4.00;99.90;;;-143.32;90.92;54046.78;6186438;23;20409;-87
2021/03/19 22:00:44;;;;;;;14.00;6.93;;;4.00;99.90;;;-143.32;91.34;54085.16;6185941;23;20394;-87
2021/03/19 22:03:12;;;;;;;10.60;6.10;;;4.00;99.90;;;-143.32;91.57;54085.16;6186244;23;20406;-88
2021/03/19 22:05:40;;;;;;;10.10;6.67;;;4.00;99.90;;;-143.32;92.10;54101.31;6184454;23;20441;-87
2021/03/19 22:08:08;;;;;;;9.83;6.50;;;4.00;99.90;;;-143.32;92.40;54050.81;6184272;23;20417;-87
2021/03/19 22:10:36;;;;;;;8.63;6.37;;;4.00;99.90;;;-143.32;91.85;54073.03;6186312;23;20434;-86
2021/03/19 22:13:03;;;;;;;9.17;6.30;;;3.90;99.90;;;-143.32;91.90;54075.06;6185827;23;20474;-87
2021/03/19 22:15:30;;;;;;;8.50;6.53;;;4.00;99.90;;;-143.32;91.59;54048.78;6186388;23;20427;-88
2021/03/19 22:17:57;;;;;;;8.07;5.53;;;4.00;99.90;;;-143.32;91.64;54048.78;6186077;23;20480;-88
2021/03/19 22:20:30;;;;;;;6.83;5.70;;;4.00;99.90;;;-143.32;91.52;54064.94;6186026;23;20975;-88
2021/03/19 22:22:57;;;;;;;9.43;6.27;;;4.00;99.90;;;-143.32;91.70;54073.03;6185489;23;20483;-87
2021/03/19 22:25:25;;;;;;;10.57;6.63;;;4.00;99.90;;;-143.32;90.84;54081.13;6186222;23;20406;-87
2021/03/19 22:27:52;;;;;;;14.20;7.10;;;4.10;99.90;;;-143.32;90.84;54075.06;6185121;23;20417;-87
2021/03/19 22:30:29;;;;;;;7.70;6.07;;;4.00;99.90;;;-143.32;91.03;54071.00;6185117;23;20413;-87
2021/03/19 22:32:57;;;;;;;6.93;6.20;;;4.00;99.90;;;-143.32;90.63;54075.06;6185882;23;20389;-88
2021/03/19 22:35:27;;;;;;;6.97;5.40;;;4.00;99.90;;;-143.32;90.12;54113.44;6186155;23;20417;-88
2021/03/19 22:37:55;;;;;;;9.20;5.53;;;4.00;99.90;;;-143.32;90.28;54121.50;6186305;23;20757;-86
2021/03/19 22:40:26;;;;;;;6.80;5.70;;;4.00;99.90;;;-143.32;90.97;54085.16;6186063;23;20421;-87
2021/03/19 22:42:53;;;;;;;9.93;5.70;;;3.90;99.90;;;-143.32;91.16;54109.41;6186218;23;20398;-87
2021/03/19 22:45:21;;;;;;;6.97;5.30;;;3.90;99.90;;;-143.32;91.31;54111.41;6186015;23;20432;-88
2021/03/19 22:47:47;;;;;;;8.17;5.67;;;3.80;99.90;;;-143.32;91.33;54139.69;6186224;23;20409;-87
2021/03/19 22:50:20;;;;;;;9.23;6.00;;;3.80;99.90;;;-143.32;91.72;54133.63;6185862;23;20409;-87
2021/03/19 22:52:48;;;;;;;5.70;4.60;;;3.70;99.90;;;-143.32;92.32;54155.84;6186361;23;20398;-88
2021/03/19 22:55:17;;;;;;;9.87;5.73;;;3.60;99.90;;;-143.32;92.83;54105.34;6185832;23;20772;-88
2021/03/19 22:57:47;;;;;;;9.77;6.10;;;3.60;99.90;;;-143.32;92.83;54105.34;6185875;23;20401;-87
2021/03/19 23:00:24;;;;;;;7.67;6.00;;;3.50;99.90;;;-143.32;92.60;54113.44;6186258;23;20406;-87
2021/03/19 23:02:52;;;;;;;8.57;5.37;;;3.50;99.90;;;-143.32;92.88;54119.50;6185923;23;20440;-87
2021/03/19 23:05:19;;;;;;;7.50;5.80;;;3.60;99.90;;;-143.32;93.16;54095.25;6186232;23;20488;-87
2021/03/19 23:07:48;;;;;;;7.97;6.07;;;3.50;99.90;;;-143.32;93.09;54137.69;6186618;23;20390;-91
2021/03/19 23:10:30;;;;;;;8.77;6.13;;;3.40;99.90;;;-143.32;93.51;54107.38;6185739;23;20475;-90
2021/03/19 23:12:57;;;;;;;6.87;5.70;;;3.40;99.90;;;-143.32;93.95;54117.47;6185750;23;20953;-91
2021/03/19 23:15:24;;;;;;;9.80;6.27;;;3.30;99.90;;;-143.32;93.98;54123.53;6185589;23;20524;-92
2021/03/19 23:17:51;;;;;;;8.00;5.93;;;3.40;99.90;;;-143.32;94.29;54123.53;6186139;23;20413;-89
2021/03/19 23:20:20;;;;;;;17.20;5.80;;;3.20;99.90;;;-143.32;94.51;54147.78;6185618;23;20679;-92
2021/03/19 23:22:47;;;;;;;5.97;5.30;;;3.10;99.90;;;-143.32;94.46;54125.56;6185467;23;20517;-90
2021/03/19 23:25:15;;;;;;;7.10;5.60;;;3.10;99.90;;;-143.32;94.64;54155.84;6186063;23;20484;-90
2021/03/19 23:27:42;;;;;;;10.60;6.30;;;3.00;99.90;;;-143.32;94.98;54155.84;6185600;23;20909;-87
2021/03/19 23:30:16;;;;;;;7.73;5.50;;;3.00;99.90;;;-143.32;94.64;54153.84;6185852;23;20397;-87
2021/03/19 23:32:43;;;;;;;6.80;5.80;;;3.00;99.90;;;-143.32;94.90;54143.75;6186063;23;20396;-87
2021/03/19 23:35:11;;;;;;;6.37;4.93;;;3.00;99.90;;;-143.32;94.68;54099.28;6187840;23;20743;-88
2021/03/19 23:37:38;;;;;;;11.30;5.50;;;3.00;99.90;;;-143.32;94.71;54135.66;6188321;23;20757;-89
2021/03/19 23:40:09;;;;;;;16.50;8.07;;;3.10;99.90;;;-143.32;96.00;54095.25;6188590;23;20394;-88
2021/03/19 23:42:39;;;;;;;8.57;5.23;;;3.20;99.90;;;-143.32;94.24;54143.75;6188009;23;20441;-87
2021/03/19 23:45:07;;;;;;;7.17;5.90;;;3.20;99.90;;;-143.32;94.45;54149.78;6188400;23;20490;-88
2021/03/19 23:47:34;;;;;;;8.70;6.80;;;3.20;99.90;;;-143.32;94.91;54139.69;6188174;23;20397;-88
2021/03/19 23:50:01;;;;;;;7.43;6.00;;;3.20;99.90;;;-143.32;95.17;54111.41;6188275;23;20460;-87
2021/03/19 23:52:28;;;;;;;11.53;6.53;;;3.10;99.90;;;-143.32;94.82;54089.19;6188068;23;20699;-88
2021/03/19 23:54:56;;;;;;;17.70;5.83;;;3.20;99.90;;;-143.32;94.71;54161.91;6188360;23;20437;-88
2021/03/19 23:57:24;;;;;;;9.50;5.30;;;3.20;99.90;;;-143.32;94.09;54155.84;6188431;23;20406;-89
2021/03/19 23:59:50;;;;;;;10.10;5.50;;;3.20;99.90;;;-143.32;93.81;54135.66;6188153;23;20395;-87
